createdAt,value
2022-12-26T00:00:30.744Z,2.70
2022-12-26T00:02:58.044Z,3.10
2022-12-26T00:05:25.287Z,3.40
2022-12-26T00:07:52.420Z,3.20
2022-12-26T00:10:19.595Z,3.10
2022-12-26T00:12:46.745Z,2.93
2022-12-26T00:15:13.866Z,3.20
2022-12-26T00:17:40.956Z,3.33
2022-12-26T00:20:08.360Z,3.07
2022-12-26T00:22:35.479Z,3.00
2022-12-26T00:25:02.686Z,3.10
2022-12-26T00:27:29.802Z,2.87
2022-12-26T00:29:56.902Z,3.10
2022-12-26T00:32:24.048Z,2.97
2022-12-26T00:34:51.188Z,3.03
2022-12-26T00:37:18.325Z,2.93
2022-12-26T00:39:45.441Z,3.40
2022-12-26T00:42:12.540Z,3.00
2022-12-26T00:44:39.652Z,3.13
2022-12-26T00:47:06.851Z,2.90
2022-12-26T00:50:14.018Z,3.00
2022-12-26T00:52:21.183Z,3.00
2022-12-26T00:54:48.261Z,3.10
2022-12-26T00:57:15.374Z,2.80
2022-12-26T00:59:42.520Z,2.97
2022-12-26T01:02:29.743Z,3.63
2022-12-26T01:04:57.023Z,3.30
2022-12-26T01:07:24.182Z,3.30
2022-12-26T01:09:51.301Z,3.07
2022-12-26T01:12:18.424Z,3.10
2022-12-26T01:14:45.544Z,3.03
2022-12-26T01:17:12.656Z,3.23
2022-12-26T01:19:39.761Z,2.90
2022-12-26T01:22:06.862Z,3.20
2022-12-26T01:24:33.962Z,3.47
2022-12-26T01:27:01.112Z,3.07
2022-12-26T01:29:28.307Z,3.10
2022-12-26T01:31:55.509Z,3.00
2022-12-26T01:34:22.994Z,3.00
2022-12-26T01:36:50.118Z,2.90
2022-12-26T01:39:17.219Z,2.87
2022-12-26T01:41:44.342Z,3.13
2022-12-26T01:44:29.986Z,3.00
2022-12-26T01:46:57.102Z,3.27
2022-12-26T01:49:27.017Z,3.30
2022-12-26T01:51:56.324Z,3.23
2022-12-26T01:54:37.639Z,3.00
2022-12-26T01:57:12.938Z,2.90
2022-12-26T01:59:41.333Z,2.93
2022-12-26T02:02:09.298Z,3.03
2022-12-26T02:04:58.486Z,2.90
2022-12-26T02:07:26.777Z,2.80
2022-12-26T02:09:54.153Z,3.10
2022-12-26T02:15:43.739Z,2.97
2022-12-26T02:18:10.835Z,2.90
2022-12-26T02:20:42.319Z,3.10
2022-12-26T02:23:15.502Z,3.30
2022-12-26T02:25:42.585Z,3.20
2022-12-26T02:28:12.704Z,3.13
2022-12-26T02:30:47.304Z,3.17
2022-12-26T02:33:17.221Z,3.07
2022-12-26T02:35:53.671Z,2.73
2022-12-26T02:38:26.750Z,3.27
2022-12-26T02:41:07.032Z,3.10
2022-12-26T02:43:42.001Z,3.43
2022-12-26T02:46:33.557Z,3.00
2022-12-26T02:49:17.548Z,2.97
2022-12-26T02:52:06.058Z,3.40
2022-12-26T02:54:57.712Z,3.27
2022-12-26T02:57:46.915Z,2.70
2022-12-26T03:00:35.063Z,3.10
2022-12-26T03:03:27.210Z,3.13
2022-12-26T03:06:31.659Z,3.00
2022-12-26T03:09:26.008Z,3.10
2022-12-26T03:12:14.830Z,2.87
2022-12-26T03:14:41.890Z,3.37
2022-12-26T03:17:20.141Z,2.93
2022-12-26T03:19:59.427Z,3.07
2022-12-26T03:22:31.921Z,3.00
2022-12-26T03:25:23.941Z,2.77
2022-12-26T03:27:51.271Z,3.13
2022-12-26T03:30:37.216Z,3.10
2022-12-26T03:33:04.479Z,3.20
2022-12-26T03:35:33.196Z,2.73
2022-12-26T03:38:05.468Z,3.23
2022-12-26T03:41:00.559Z,3.27
2022-12-26T03:44:04.987Z,3.13
2022-12-26T03:46:53.432Z,3.30
2022-12-26T03:49:41.825Z,3.20
2022-12-26T03:52:39.576Z,2.90
2022-12-26T03:55:25.404Z,3.13
2022-12-26T03:58:21.125Z,3.00
2022-12-26T04:01:09.336Z,3.60
2022-12-26T04:03:57.341Z,3.37
2022-12-26T04:06:46.025Z,3.33
2022-12-26T04:09:38.605Z,3.00
2022-12-26T04:12:25.172Z,3.33
2022-12-26T04:15:14.679Z,2.97
2022-12-26T04:18:03.020Z,2.93
2022-12-26T04:20:36.056Z,3.40
2022-12-26T04:23:34.725Z,3.70
2022-12-26T04:26:23.274Z,3.50
2022-12-26T04:29:09.264Z,3.40
2022-12-26T04:32:02.933Z,3.10
2022-12-26T04:35:01.496Z,3.07
2022-12-26T04:37:48.556Z,2.83
2022-12-26T04:40:37.583Z,3.20
2022-12-26T04:43:49.904Z,3.40
2022-12-26T04:46:11.229Z,2.90
2022-12-26T04:49:04.202Z,3.20
2022-12-26T04:51:31.331Z,3.50
2022-12-26T04:53:58.428Z,3.07
2022-12-26T04:56:25.508Z,3.20
2022-12-26T04:58:52.817Z,3.00
2022-12-26T05:01:38.591Z,3.30
2022-12-26T05:04:24.432Z,3.10
2022-12-26T05:07:10.584Z,3.10
2022-12-26T05:09:39.629Z,2.70
2022-12-26T05:12:08.291Z,3.20
2022-12-26T05:14:36.015Z,2.83
2022-12-26T05:17:22.544Z,3.20
2022-12-26T05:20:08.734Z,2.73
2022-12-26T05:22:57.516Z,3.07
2022-12-26T05:25:44.977Z,3.10
2022-12-26T05:28:31.965Z,3.07
2022-12-26T05:30:59.101Z,2.80
2022-12-26T05:33:45.051Z,3.07
2022-12-26T05:36:12.440Z,3.20
2022-12-26T05:38:39.843Z,2.60
2022-12-26T05:41:07.018Z,2.53
2022-12-26T05:43:34.179Z,2.80
2022-12-26T05:46:01.348Z,2.70
2022-12-26T05:48:28.587Z,2.50
2022-12-26T05:51:00.141Z,3.00
2022-12-26T05:53:27.670Z,2.87
2022-12-26T05:55:54.877Z,2.90
2022-12-26T05:58:22.199Z,3.03
2022-12-26T06:00:49.469Z,2.73
2022-12-26T06:03:16.650Z,2.87
2022-12-26T06:05:43.903Z,3.07
2022-12-26T06:08:11.026Z,2.87
2022-12-26T06:10:38.305Z,3.00
2022-12-26T06:13:05.428Z,2.70
2022-12-26T06:15:32.551Z,2.80
2022-12-26T06:17:59.649Z,3.00
2022-12-26T06:20:26.751Z,2.67
2022-12-26T06:22:53.846Z,3.07
2022-12-26T06:25:21.067Z,2.87
2022-12-26T06:27:48.182Z,2.63
2022-12-26T06:30:15.332Z,3.07
2022-12-26T06:32:42.527Z,2.80
2022-12-26T06:35:09.775Z,2.43
2022-12-26T06:37:36.882Z,3.00
2022-12-26T06:40:04.204Z,2.90
2022-12-26T06:42:31.315Z,2.67
2022-12-26T06:44:58.451Z,2.83
2022-12-26T06:47:25.623Z,2.90
2022-12-26T06:49:52.770Z,2.90
2022-12-26T06:52:19.925Z,2.90
2022-12-26T06:54:47.049Z,3.10
2022-12-26T06:57:14.179Z,2.73
2022-12-26T06:59:41.285Z,3.30
2022-12-26T07:02:10.643Z,2.97
2022-12-26T07:04:37.825Z,2.83
2022-12-26T07:07:04.951Z,2.90
2022-12-26T07:09:34.106Z,2.90
2022-12-26T07:12:01.661Z,3.17
2022-12-26T07:14:28.757Z,2.90
2022-12-26T07:16:55.952Z,3.37
2022-12-26T07:19:23.145Z,2.97
2022-12-26T07:21:50.261Z,3.00
2022-12-26T07:24:18.370Z,2.90
2022-12-26T07:26:46.249Z,2.93
2022-12-26T07:29:13.867Z,2.63
2022-12-26T07:31:41.633Z,2.97
2022-12-26T07:34:08.875Z,3.03
2022-12-26T07:36:36.038Z,2.83
2022-12-26T07:39:03.247Z,3.10
2022-12-26T07:41:49.503Z,2.80
2022-12-26T07:44:16.628Z,3.20
2022-12-26T07:46:43.988Z,2.90
2022-12-26T07:49:12.583Z,2.70
2022-12-26T07:51:39.729Z,2.93
2022-12-26T07:54:11.016Z,3.00
2022-12-26T07:56:38.687Z,2.93
2022-12-26T07:59:05.938Z,3.23
2022-12-26T08:01:33.233Z,3.40
2022-12-26T08:04:00.529Z,3.30
2022-12-26T08:06:28.130Z,3.50
2022-12-26T08:08:55.274Z,3.20
2022-12-26T08:11:23.694Z,3.37
2022-12-26T08:13:51.352Z,3.23
2022-12-26T08:16:18.661Z,3.07
2022-12-26T08:18:45.830Z,2.60
2022-12-26T08:21:13.079Z,3.57
2022-12-26T08:23:40.379Z,3.60
2022-12-26T08:26:08.532Z,3.60
2022-12-26T08:28:35.807Z,3.50
2022-12-26T08:31:07.325Z,3.50
2022-12-26T08:33:34.740Z,3.30
2022-12-26T08:36:03.123Z,3.50
2022-12-26T08:38:32.033Z,3.50
2022-12-26T08:41:01.036Z,3.67
2022-12-26T08:44:03.619Z,3.30
2022-12-26T08:46:15.631Z,3.90
2022-12-26T08:48:43.118Z,3.87
2022-12-26T08:51:15.583Z,3.93
2022-12-26T08:53:43.115Z,3.50
2022-12-26T08:56:13.548Z,3.77
2022-12-26T08:58:40.965Z,3.70
2022-12-26T09:01:12.770Z,4.07
2022-12-26T09:03:40.727Z,3.23
2022-12-26T09:06:08.002Z,3.97
2022-12-26T09:08:36.094Z,3.70
2022-12-26T09:11:04.579Z,3.97
2022-12-26T09:13:32.146Z,3.60
2022-12-26T09:16:19.128Z,3.77
2022-12-26T09:18:47.103Z,3.30
2022-12-26T09:21:15.229Z,3.43
2022-12-26T09:23:42.960Z,3.77
2022-12-26T09:26:12.069Z,4.13
2022-12-26T09:28:39.231Z,3.70
2022-12-26T09:31:07.790Z,4.00
2022-12-26T09:33:37.626Z,3.30
2022-12-26T09:36:14.299Z,3.80
2022-12-26T09:38:42.188Z,4.00
2022-12-26T09:41:28.148Z,3.67
2022-12-26T09:44:06.670Z,3.83
2022-12-26T09:46:59.006Z,4.20
2022-12-26T09:49:32.401Z,3.87
2022-12-26T09:52:06.118Z,3.80
2022-12-26T09:54:52.135Z,3.97
2022-12-26T09:57:22.086Z,4.00
2022-12-26T09:59:57.495Z,3.57
2022-12-26T10:02:25.556Z,4.00
2022-12-26T10:04:53.443Z,3.97
2022-12-26T10:07:46.807Z,4.03
2022-12-26T10:10:15.489Z,4.40
2022-12-26T10:12:42.622Z,4.57
2022-12-26T10:15:15.933Z,4.50
2022-12-26T10:17:54.089Z,4.37
2022-12-26T10:20:31.569Z,4.23
2022-12-26T10:23:07.747Z,4.67
2022-12-26T10:25:34.845Z,4.60
2022-12-26T10:28:02.832Z,4.03
2022-12-26T10:30:34.177Z,4.33
2022-12-26T10:33:04.678Z,4.53
2022-12-26T10:35:34.020Z,4.10
2022-12-26T10:38:05.291Z,4.10
2022-12-26T10:40:36.384Z,4.00
2022-12-26T10:43:16.488Z,3.90
2022-12-26T10:45:45.901Z,3.83
2022-12-26T10:48:16.929Z,3.50
2022-12-26T10:50:48.709Z,4.00
2022-12-26T10:53:16.533Z,3.33
2022-12-26T10:55:43.896Z,3.23
2022-12-26T10:58:22.161Z,3.17
2022-12-26T11:00:49.392Z,3.83
2022-12-26T11:03:17.981Z,3.20
2022-12-26T11:08:43.263Z,3.30
2022-12-26T11:11:51.789Z,3.20
2022-12-26T11:14:36.974Z,3.17
2022-12-26T11:17:06.578Z,2.90
2022-12-26T11:19:38.504Z,2.97
2022-12-26T11:22:20.919Z,2.60
2022-12-26T11:25:02.853Z,2.87
2022-12-26T11:27:29.940Z,2.97
2022-12-26T11:30:29.608Z,2.33
2022-12-26T11:33:14.938Z,2.80
2022-12-26T11:35:53.392Z,2.27
2022-12-26T11:38:44.059Z,2.30
2022-12-26T11:41:33.292Z,2.40
2022-12-26T11:44:12.539Z,2.27
2022-12-26T11:46:45.200Z,2.40
2022-12-26T11:49:20.740Z,2.50
2022-12-26T11:51:51.773Z,2.30
2022-12-26T11:54:22.642Z,2.30
2022-12-26T11:56:50.318Z,2.50
2022-12-26T11:59:23.850Z,2.13
2022-12-26T12:02:10.988Z,1.83
2022-12-26T12:04:38.581Z,1.90
2022-12-26T12:07:20.547Z,2.20
2022-12-26T12:09:54.786Z,2.10
2022-12-26T12:12:24.791Z,2.43
2022-12-26T12:14:55.144Z,2.07
2022-12-26T12:17:22.731Z,1.90
2022-12-26T12:20:01.322Z,1.80
2022-12-26T12:22:28.438Z,2.00
2022-12-26T12:24:55.538Z,1.97
2022-12-26T12:27:29.849Z,1.60
2022-12-26T12:30:12.152Z,1.60
2022-12-26T12:32:53.520Z,1.93
2022-12-26T12:35:29.711Z,1.70
2022-12-26T12:38:15.319Z,1.80
2022-12-26T12:40:42.401Z,1.80
2022-12-26T12:43:28.155Z,1.87
2022-12-26T12:46:17.355Z,2.53
2022-12-26T12:48:54.255Z,1.50
2022-12-26T12:51:29.171Z,1.67
2022-12-26T12:54:08.646Z,1.70
2022-12-26T12:56:41.781Z,1.97
2022-12-26T12:59:24.707Z,1.80
2022-12-26T13:01:54.148Z,1.90
2022-12-26T13:04:27.681Z,1.93
2022-12-26T13:07:00.408Z,2.00
2022-12-26T13:09:31.357Z,1.60
2022-12-26T13:12:03.350Z,1.77
2022-12-26T13:14:36.550Z,1.73
2022-12-26T13:17:12.230Z,1.70
2022-12-26T13:19:50.013Z,1.70
2022-12-26T13:22:24.449Z,1.70
2022-12-26T13:24:58.927Z,1.60
2022-12-26T13:27:36.399Z,1.90
2022-12-26T13:30:05.815Z,1.70
2022-12-26T13:32:33.056Z,1.70
2022-12-26T13:35:01.195Z,1.80
2022-12-26T13:37:40.623Z,1.80
2022-12-26T13:40:16.353Z,1.40
2022-12-26T13:43:09.054Z,1.50
2022-12-26T13:45:36.280Z,1.53
2022-12-26T13:48:18.497Z,1.87
2022-12-26T13:50:56.170Z,1.77
2022-12-26T13:53:26.747Z,2.00
2022-12-26T13:55:55.165Z,1.63
2022-12-26T13:58:41.038Z,1.70
2022-12-26T14:01:20.616Z,1.63
2022-12-26T14:03:54.000Z,1.70
2022-12-26T14:06:44.179Z,1.87
2022-12-26T14:09:11.272Z,2.30
2022-12-26T14:11:38.426Z,2.27
2022-12-26T14:14:05.533Z,2.13
2022-12-26T14:16:47.884Z,2.40
2022-12-26T14:19:24.747Z,2.50
2022-12-26T14:22:00.672Z,2.70
2022-12-26T14:24:46.585Z,2.83
2022-12-26T14:27:32.548Z,2.50
2022-12-26T14:30:06.997Z,2.50
2022-12-26T14:32:34.996Z,2.50
2022-12-26T14:35:20.936Z,3.00
2022-12-26T14:38:07.283Z,2.70
2022-12-26T14:40:36.238Z,2.70
2022-12-26T14:43:12.745Z,2.80
2022-12-26T14:45:47.827Z,3.20
2022-12-26T14:48:17.950Z,2.83
2022-12-26T14:50:55.405Z,2.97
2022-12-26T14:53:28.065Z,2.73
2022-12-26T14:56:02.914Z,2.90
2022-12-26T14:58:39.379Z,2.50
2022-12-26T15:01:09.872Z,3.00
2022-12-26T15:03:45.402Z,2.90
2022-12-26T15:06:21.581Z,3.07
2022-12-26T15:08:54.707Z,2.80
2022-12-26T15:11:30.563Z,3.30
2022-12-26T15:14:16.280Z,6.17
2022-12-26T15:16:49.636Z,2.60
2022-12-26T15:19:35.430Z,3.50
2022-12-26T15:22:21.721Z,3.10
2022-12-26T15:25:22.848Z,2.80
2022-12-26T15:28:01.944Z,2.63
2022-12-26T15:30:48.340Z,3.17
2022-12-26T15:33:18.550Z,3.10
2022-12-26T15:36:03.383Z,2.63
2022-12-26T15:38:49.567Z,2.90
2022-12-26T15:41:19.686Z,2.87
2022-12-26T15:43:51.711Z,2.87
2022-12-26T15:46:22.108Z,3.60
2022-12-26T15:48:52.292Z,3.60
2022-12-26T15:51:29.254Z,3.30
2022-12-26T15:54:15.218Z,3.30
2022-12-26T15:57:11.734Z,2.87
2022-12-26T15:59:57.556Z,3.30
2022-12-26T16:02:27.923Z,9.27
2022-12-26T16:04:59.606Z,3.33
2022-12-26T16:07:34.736Z,3.07
2022-12-26T16:10:02.147Z,3.10
2022-12-26T16:12:34.131Z,3.20
2022-12-26T16:15:10.157Z,2.60
2022-12-26T16:17:38.241Z,2.23
2022-12-26T16:20:45.510Z,2.53
2022-12-26T16:23:14.452Z,2.80
2022-12-26T16:25:46.801Z,2.10
2022-12-26T16:28:14.140Z,2.13
2022-12-26T16:30:41.351Z,2.13
2022-12-26T16:33:08.524Z,2.57
2022-12-26T16:35:40.431Z,2.17
2022-12-26T16:38:09.444Z,2.67
2022-12-26T16:40:58.098Z,2.77
2022-12-26T16:43:26.768Z,2.50
2022-12-26T16:45:55.678Z,2.60
2022-12-26T16:48:24.028Z,2.97
2022-12-26T16:50:52.958Z,2.50
2022-12-26T16:53:21.621Z,2.57
2022-12-26T16:56:01.282Z,2.37
2022-12-26T16:58:30.819Z,2.50
2022-12-26T17:01:08.842Z,2.00
2022-12-26T17:03:38.904Z,2.20
2022-12-26T17:06:14.796Z,1.80
2022-12-26T17:08:46.845Z,2.10
2022-12-26T17:11:14.692Z,1.90
2022-12-26T17:13:42.079Z,1.73
2022-12-26T17:16:10.790Z,1.50
2022-12-26T17:18:41.088Z,1.73
2022-12-26T17:21:17.602Z,2.20
2022-12-26T17:23:44.757Z,2.33
2022-12-26T17:26:18.058Z,1.70
2022-12-26T17:28:45.188Z,1.40
2022-12-26T17:31:13.962Z,1.50
2022-12-26T17:33:47.571Z,1.23
2022-12-26T17:39:13.649Z,1.30
2022-12-26T17:41:49.994Z,1.53
2022-12-26T17:44:36.024Z,1.40
2022-12-26T17:47:07.574Z,1.50
2022-12-26T17:49:34.649Z,1.23
2022-12-26T17:52:02.193Z,0.70
2022-12-26T17:54:29.432Z,0.90
2022-12-26T17:56:56.593Z,0.70
2022-12-26T17:59:23.726Z,0.50
2022-12-26T18:01:50.962Z,0.60
2022-12-26T18:04:18.173Z,0.67
2022-12-26T18:06:45.372Z,0.50
2022-12-26T18:09:32.753Z,0.60
2022-12-26T18:11:59.923Z,0.60
2022-12-26T18:14:27.046Z,0.63
2022-12-26T18:16:54.186Z,0.80
2022-12-26T18:19:21.563Z,1.10
2022-12-26T18:21:48.688Z,3.10
2022-12-26T18:24:15.864Z,1.30
2022-12-26T18:26:43.188Z,0.80
2022-12-26T18:29:11.102Z,0.70
2022-12-26T18:31:39.463Z,0.90
2022-12-26T18:34:07.032Z,0.90
2022-12-26T18:36:35.238Z,0.90
2022-12-26T18:39:02.953Z,0.90
2022-12-26T18:41:30.090Z,1.00
2022-12-26T18:43:58.174Z,1.40
2022-12-26T18:46:26.609Z,1.00
2022-12-26T18:48:56.545Z,0.80
2022-12-26T18:51:24.867Z,1.00
2022-12-26T18:53:52.512Z,1.00
2022-12-26T18:56:22.047Z,1.00
2022-12-26T18:58:55.556Z,0.90
2022-12-26T19:01:25.240Z,1.50
2022-12-26T19:03:53.857Z,2.17
2022-12-26T19:06:23.009Z,1.37
2022-12-26T19:08:50.134Z,1.40
2022-12-26T19:11:17.299Z,1.30
2022-12-26T19:13:44.685Z,0.83
2022-12-26T19:16:12.082Z,0.90
2022-12-26T19:18:39.489Z,1.00
2022-12-26T19:21:11.332Z,1.00
2022-12-26T19:23:38.495Z,1.03
2022-12-26T19:26:16.618Z,0.70
2022-12-26T19:28:43.749Z,0.80
2022-12-26T19:31:12.063Z,0.60
2022-12-26T19:33:39.321Z,0.83
2022-12-26T19:36:07.313Z,1.00
2022-12-26T19:38:34.503Z,1.07
2022-12-26T19:41:02.799Z,1.00
2022-12-26T19:43:29.908Z,1.10
2022-12-26T19:46:03.991Z,0.80
2022-12-26T19:48:32.040Z,0.90
2022-12-26T19:51:06.761Z,0.80
2022-12-26T19:53:35.295Z,0.83
2022-12-26T19:56:12.291Z,0.87
2022-12-26T19:58:39.572Z,1.07
2022-12-26T20:01:17.266Z,0.80
2022-12-26T20:03:44.589Z,0.97
2022-12-26T20:06:15.215Z,1.00
2022-12-26T20:08:43.195Z,1.20
2022-12-26T20:11:12.936Z,1.00
2022-12-26T20:13:40.759Z,1.03
2022-12-26T20:16:18.743Z,0.87
2022-12-26T20:18:56.505Z,0.80
2022-12-26T20:21:26.545Z,0.77
2022-12-26T20:23:53.749Z,0.90
2022-12-26T20:26:22.875Z,0.90
2022-12-26T20:28:50.246Z,1.00
2022-12-26T20:31:19.283Z,1.00
2022-12-26T20:33:47.121Z,1.00
2022-12-26T20:36:24.849Z,1.20
2022-12-26T20:38:52.910Z,1.00
2022-12-26T20:41:20.147Z,1.00
2022-12-26T20:43:48.211Z,0.87
2022-12-26T20:46:17.099Z,1.10
2022-12-26T20:48:44.678Z,1.07
2022-12-26T20:51:12.954Z,1.00
2022-12-26T20:53:40.255Z,0.80
2022-12-26T20:56:07.775Z,1.27
2022-12-26T20:58:35.632Z,1.00
2022-12-26T21:01:04.206Z,0.90
2022-12-26T21:03:31.690Z,0.90
2022-12-26T21:06:07.929Z,1.17
2022-12-26T21:08:35.925Z,0.90
2022-12-26T21:11:10.513Z,1.40
2022-12-26T21:13:38.661Z,1.37
2022-12-26T21:16:10.224Z,1.00
2022-12-26T21:18:37.601Z,1.30
2022-12-26T21:21:06.063Z,1.47
2022-12-26T21:23:33.570Z,1.37
2022-12-26T21:26:00.786Z,1.20
2022-12-26T21:28:28.106Z,1.23
2022-12-26T21:30:55.314Z,1.40
2022-12-26T21:33:22.711Z,1.60
2022-12-26T21:35:53.192Z,1.40
2022-12-26T21:38:21.640Z,1.80
2022-12-26T21:40:49.055Z,1.60
2022-12-26T21:43:16.457Z,1.43
2022-12-26T21:45:43.710Z,1.37
2022-12-26T21:48:11.001Z,1.13
2022-12-26T21:50:38.137Z,1.30
2022-12-26T21:53:05.289Z,1.30
2022-12-26T21:55:36.406Z,0.90
2022-12-26T21:58:04.120Z,0.90
2022-12-26T22:00:33.182Z,0.80
2022-12-26T22:03:18.953Z,0.90
2022-12-26T22:05:46.081Z,0.90
2022-12-26T22:08:13.260Z,1.00
2022-12-26T22:11:03.101Z,1.00
2022-12-26T22:13:32.243Z,0.90
2022-12-26T22:16:06.844Z,0.70
2022-12-26T22:18:38.995Z,0.80
2022-12-26T22:21:11.115Z,0.70
2022-12-26T22:23:39.318Z,0.90
2022-12-26T22:26:07.145Z,1.00
2022-12-26T22:28:34.704Z,0.77
2022-12-26T22:31:02.278Z,0.90
2022-12-26T22:33:30.029Z,0.70
2022-12-26T22:36:04.585Z,0.70
2022-12-26T22:38:31.795Z,0.80
2022-12-26T22:40:59.842Z,0.90
2022-12-26T22:43:27.313Z,0.80
2022-12-26T22:45:54.783Z,0.90
2022-12-26T22:48:21.957Z,0.80
2022-12-26T22:50:51.782Z,0.97
2022-12-26T22:53:18.926Z,1.00
2022-12-26T22:55:47.677Z,0.87
2022-12-26T22:58:15.458Z,0.90
2022-12-26T23:00:42.663Z,1.40
2022-12-26T23:03:10.191Z,1.00
2022-12-26T23:05:38.006Z,1.00
2022-12-26T23:08:05.619Z,1.00
2022-12-26T23:10:33.040Z,1.07
2022-12-26T23:13:00.408Z,0.83
2022-12-26T23:15:28.692Z,0.80
2022-12-26T23:18:18.784Z,0.80
2022-12-26T23:21:04.791Z,1.10
2022-12-26T23:23:32.100Z,0.70
2022-12-26T23:26:00.641Z,0.87
2022-12-26T23:28:46.384Z,0.90
2022-12-26T23:31:13.746Z,0.90
2022-12-26T23:33:40.887Z,1.00
2022-12-26T23:36:08.589Z,0.90
2022-12-26T23:38:35.722Z,0.83
2022-12-26T23:41:02.877Z,0.90
2022-12-26T23:43:30.141Z,0.90
2022-12-26T23:45:57.253Z,1.10
2022-12-26T23:48:24.404Z,1.20
2022-12-26T23:50:51.509Z,1.07
2022-12-26T23:53:18.634Z,1.17
2022-12-26T23:55:45.737Z,1.10
2022-12-26T23:58:12.874Z,1.07
